sensor_id;sensor_type;location;lat;lon;timestamp;P1;durP1;ratioP1;P2;durP2;ratioP2
3949;SDS011;53057;50.988;6.314;2024-02-28T00:01:15;546.47;;;183.13;;
3949;SDS011;53057;50.988;6.314;2024-02-28T00:03:43;547.83;;;177.50;;
3949;SDS011;53057;50.988;6.314;2024-02-28T00:06:11;553.73;;;182.83;;
3949;SDS011;53057;50.988;6.314;2024-02-28T00:08:38;577.93;;;183.73;;
3949;SDS011;53057;50.988;6.314;2024-02-28T00:11:05;566.67;;;182.67;;
3949;SDS011;53057;50.988;6.314;2024-02-28T00:13:32;550.20;;;168.87;;
3949;SDS011;53057;50.988;6.314;2024-02-28T00:16:02;575.77;;;180.33;;
3949;SDS011;53057;50.988;6.314;2024-02-28T00:18:29;554.70;;;169.57;;
3949;SDS011;53057;50.988;6.314;2024-02-28T00:20:59;566.60;;;176.97;;
3949;SDS011;53057;50.988;6.314;2024-02-28T00:23:26;579.73;;;172.80;;
3949;SDS011;53057;50.988;6.314;2024-02-28T00:25:52;548.37;;;168.50;;
3949;SDS011;53057;50.988;6.314;2024-02-28T00:28:19;561.53;;;174.00;;
3949;SDS011;53057;50.988;6.314;2024-02-28T00:30:46;585.80;;;178.50;;
3949;SDS011;53057;50.988;6.314;2024-02-28T00:33:13;566.03;;;173.93;;
3949;SDS011;53057;50.988;6.314;2024-02-28T00:35:41;589.10;;;178.67;;
3949;SDS011;53057;50.988;6.314;2024-02-28T00:38:09;636.33;;;183.13;;
3949;SDS011;53057;50.988;6.314;2024-02-28T00:40:37;637.30;;;185.97;;
3949;SDS011;53057;50.988;6.314;2024-02-28T00:43:05;582.20;;;174.63;;
3949;SDS011;53057;50.988;6.314;2024-02-28T00:45:31;565.70;;;167.43;;
3949;SDS011;53057;50.988;6.314;2024-02-28T00:47:59;606.40;;;175.20;;
3949;SDS011;53057;50.988;6.314;2024-02-28T00:50:26;623.23;;;183.20;;
3949;SDS011;53057;50.988;6.314;2024-02-28T00:52:53;614.17;;;186.77;;
3949;SDS011;53057;50.988;6.314;2024-02-28T00:55:20;637.93;;;180.10;;
3949;SDS011;53057;50.988;6.314;2024-02-28T00:57:47;678.87;;;193.70;;
3949;SDS011;53057;50.988;6.314;2024-02-28T01:00:14;717.70;;;199.70;;
3949;SDS011;53057;50.988;6.314;2024-02-28T01:02:41;711.60;;;193.97;;
3949;SDS011;53057;50.988;6.314;2024-02-28T01:05:11;709.00;;;201.47;;
3949;SDS011;53057;50.988;6.314;2024-02-28T01:07:39;829.93;;;211.77;;
3949;SDS011;53057;50.988;6.314;2024-02-28T01:10:07;623.77;;;181.53;;
3949;SDS011;53057;50.988;6.314;2024-02-28T01:12:34;876.40;;;220.67;;
3949;SDS011;53057;50.988;6.314;2024-02-28T01:15:01;804.17;;;206.27;;
3949;SDS011;53057;50.988;6.314;2024-02-28T01:17:29;1635.13;;;312.67;;
3949;SDS011;53057;50.988;6.314;2024-02-28T01:19:56;1801.70;;;303.47;;
3949;SDS011;53057;50.988;6.314;2024-02-28T01:22:23;1610.33;;;291.73;;
3949;SDS011;53057;50.988;6.314;2024-02-28T01:24:51;1444.40;;;282.23;;
3949;SDS011;53057;50.988;6.314;2024-02-28T01:27:18;1541.40;;;281.67;;
3949;SDS011;53057;50.988;6.314;2024-02-28T01:29:45;950.27;;;221.03;;
3949;SDS011;53057;50.988;6.314;2024-02-28T01:32:11;776.43;;;194.93;;
3949;SDS011;53057;50.988;6.314;2024-02-28T01:34:39;690.03;;;186.97;;
3949;SDS011;53057;50.988;6.314;2024-02-28T01:37:09;672.43;;;183.20;;
3949;SDS011;53057;50.988;6.314;2024-02-28T01:39:36;599.10;;;169.00;;
3949;SDS011;53057;50.988;6.314;2024-02-28T01:42:03;666.27;;;182.03;;
3949;SDS011;53057;50.988;6.314;2024-02-28T01:44:30;712.03;;;183.17;;
3949;SDS011;53057;50.988;6.314;2024-02-28T01:46:58;706.33;;;179.03;;
3949;SDS011;53057;50.988;6.314;2024-02-28T01:49:25;1102.40;;;219.37;;
3949;SDS011;53057;50.988;6.314;2024-02-28T01:51:53;1532.23;;;271.73;;
3949;SDS011;53057;50.988;6.314;2024-02-28T01:54:21;1609.83;;;277.60;;
3949;SDS011;53057;50.988;6.314;2024-02-28T01:56:49;1864.03;;;314.00;;
3949;SDS011;53057;50.988;6.314;2024-02-28T01:59:16;1796.93;;;304.00;;
3949;SDS011;53057;50.988;6.314;2024-02-28T02:01:45;1844.83;;;304.63;;
3949;SDS011;53057;50.988;6.314;2024-02-28T02:04:12;2070.50;;;319.70;;
3949;SDS011;53057;50.988;6.314;2024-02-28T02:06:39;2025.73;;;321.53;;
3949;SDS011;53057;50.988;6.314;2024-02-28T02:09:09;1738.13;;;286.10;;
3949;SDS011;53057;50.988;6.314;2024-02-28T02:11:38;1584.80;;;250.40;;
3949;SDS011;53057;50.988;6.314;2024-02-28T02:14:06;1870.03;;;302.03;;
3949;SDS011;53057;50.988;6.314;2024-02-28T02:16:33;2027.60;;;332.93;;
3949;SDS011;53057;50.988;6.314;2024-02-28T02:18:59;1963.37;;;312.87;;
3949;SDS011;53057;50.988;6.314;2024-02-28T02:21:30;2034.10;;;305.07;;
3949;SDS011;53057;50.988;6.314;2024-02-28T02:23:58;1934.37;;;306.80;;
3949;SDS011;53057;50.988;6.314;2024-02-28T02:26:24;2068.37;;;309.00;;
3949;SDS011;53057;50.988;6.314;2024-02-28T02:28:52;2140.33;;;322.60;;
3949;SDS011;53057;50.988;6.314;2024-02-28T02:31:19;1833.23;;;285.43;;
3949;SDS011;53057;50.988;6.314;2024-02-28T02:33:45;1995.47;;;308.77;;
3949;SDS011;53057;50.988;6.314;2024-02-28T02:36:12;1592.47;;;263.87;;
3949;SDS011;53057;50.988;6.314;2024-02-28T02:38:40;1945.53;;;293.67;;
3949;SDS011;53057;50.988;6.314;2024-02-28T02:41:07;1423.73;;;227.57;;
3949;SDS011;53057;50.988;6.314;2024-02-28T02:43:34;1866.07;;;302.43;;
3949;SDS011;53057;50.988;6.314;2024-02-28T02:46:02;1310.50;;;223.27;;
3949;SDS011;53057;50.988;6.314;2024-02-28T02:48:29;1764.97;;;276.47;;
3949;SDS011;53057;50.988;6.314;2024-02-28T02:50:56;1357.53;;;210.63;;
3949;SDS011;53057;50.988;6.314;2024-02-28T02:53:24;1708.53;;;259.63;;
3949;SDS011;53057;50.988;6.314;2024-02-28T02:55:51;1789.70;;;263.00;;
3949;SDS011;53057;50.988;6.314;2024-02-28T02:58:18;1812.80;;;273.90;;
3949;SDS011;53057;50.988;6.314;2024-02-28T03:00:45;1723.17;;;273.87;;
3949;SDS011;53057;50.988;6.314;2024-02-28T03:03:15;1833.97;;;275.07;;
3949;SDS011;53057;50.988;6.314;2024-02-28T03:05:43;1741.20;;;253.10;;
3949;SDS011;53057;50.988;6.314;2024-02-28T03:08:10;1462.17;;;217.10;;
3949;SDS011;53057;50.988;6.314;2024-02-28T03:10:37;1615.40;;;254.77;;
3949;SDS011;53057;50.988;6.314;2024-02-28T03:13:05;1546.00;;;250.83;;
3949;SDS011;53057;50.988;6.314;2024-02-28T03:15:33;1553.97;;;238.23;;
3949;SDS011;53057;50.988;6.314;2024-02-28T03:18:01;1186.93;;;186.17;;
3949;SDS011;53057;50.988;6.314;2024-02-28T03:20:28;1712.20;;;266.03;;
3949;SDS011;53057;50.988;6.314;2024-02-28T03:22:55;1499.43;;;238.90;;
3949;SDS011;53057;50.988;6.314;2024-02-28T03:25:22;1580.30;;;242.33;;
3949;SDS011;53057;50.988;6.314;2024-02-28T03:27:49;1668.47;;;262.10;;
3949;SDS011;53057;50.988;6.314;2024-02-28T03:30:16;1309.47;;;213.00;;
3949;SDS011;53057;50.988;6.314;2024-02-28T03:32:44;697.13;;;94.73;;
3949;SDS011;53057;50.988;6.314;2024-02-28T03:35:11;1259.17;;;195.17;;
3949;SDS011;53057;50.988;6.314;2024-02-28T03:37:38;1388.70;;;216.60;;
3949;SDS011;53057;50.988;6.314;2024-02-28T03:40:06;1290.53;;;202.20;;
3949;SDS011;53057;50.988;6.314;2024-02-28T03:42:33;762.70;;;111.03;;
3949;SDS011;53057;50.988;6.314;2024-02-28T03:45:01;868.43;;;128.93;;
3949;SDS011;53057;50.988;6.314;2024-02-28T03:47:27;678.47;;;99.83;;
3949;SDS011;53057;50.988;6.314;2024-02-28T03:49:55;1013.80;;;166.90;;
3949;SDS011;53057;50.988;6.314;2024-02-28T03:52:24;1309.13;;;204.07;;
3949;SDS011;53057;50.988;6.314;2024-02-28T03:54:51;960.97;;;168.87;;
3949;SDS011;53057;50.988;6.314;2024-02-28T03:57:19;1145.87;;;205.67;;
3949;SDS011;53057;50.988;6.314;2024-02-28T03:59:46;976.83;;;189.63;;
3949;SDS011;53057;50.988;6.314;2024-02-28T04:02:13;774.30;;;159.97;;
3949;SDS011;53057;50.988;6.314;2024-02-28T04:04:41;952.43;;;156.60;;
3949;SDS011;53057;50.988;6.314;2024-02-28T04:07:08;878.00;;;180.87;;
3949;SDS011;53057;50.988;6.314;2024-02-28T04:09:35;721.37;;;150.63;;
3949;SDS011;53057;50.988;6.314;2024-02-28T04:12:02;713.27;;;145.10;;
3949;SDS011;53057;50.988;6.314;2024-02-28T04:14:30;629.27;;;137.47;;
3949;SDS011;53057;50.988;6.314;2024-02-28T04:16:57;594.83;;;117.30;;
3949;SDS011;53057;50.988;6.314;2024-02-28T04:19:24;705.63;;;143.07;;
3949;SDS011;53057;50.988;6.314;2024-02-28T04:21:52;858.57;;;174.73;;
3949;SDS011;53057;50.988;6.314;2024-02-28T04:24:19;939.40;;;190.30;;
3949;SDS011;53057;50.988;6.314;2024-02-28T04:26:47;836.90;;;172.83;;
3949;SDS011;53057;50.988;6.314;2024-02-28T04:29:15;489.13;;;111.03;;
3949;SDS011;53057;50.988;6.314;2024-02-28T04:31:41;703.50;;;153.43;;
3949;SDS011;53057;50.988;6.314;2024-02-28T04:34:08;664.57;;;137.47;;
3949;SDS011;53057;50.988;6.314;2024-02-28T04:36:37;621.00;;;129.87;;
3949;SDS011;53057;50.988;6.314;2024-02-28T04:39:04;623.80;;;133.83;;
3949;SDS011;53057;50.988;6.314;2024-02-28T04:41:35;714.03;;;148.17;;
3949;SDS011;53057;50.988;6.314;2024-02-28T04:44:02;663.73;;;140.50;;
3949;SDS011;53057;50.988;6.314;2024-02-28T04:46:30;630.27;;;141.67;;
3949;SDS011;53057;50.988;6.314;2024-02-28T04:48:57;616.50;;;136.77;;
3949;SDS011;53057;50.988;6.314;2024-02-28T04:51:24;645.23;;;147.77;;
3949;SDS011;53057;50.988;6.314;2024-02-28T04:53:52;538.20;;;129.23;;
3949;SDS011;53057;50.988;6.314;2024-02-28T04:56:19;613.40;;;135.47;;
3949;SDS011;53057;50.988;6.314;2024-02-28T04:58:47;553.70;;;120.07;;
3949;SDS011;53057;50.988;6.314;2024-02-28T05:01:14;539.70;;;123.43;;
3949;SDS011;53057;50.988;6.314;2024-02-28T05:03:45;526.83;;;112.80;;
3949;SDS011;53057;50.988;6.314;2024-02-28T05:06:12;554.30;;;120.53;;
3949;SDS011;53057;50.988;6.314;2024-02-28T05:08:39;509.77;;;116.67;;
3949;SDS011;53057;50.988;6.314;2024-02-28T05:11:06;559.27;;;119.30;;
3949;SDS011;53057;50.988;6.314;2024-02-28T05:13:34;567.60;;;130.87;;
3949;SDS011;53057;50.988;6.314;2024-02-28T05:16:01;634.27;;;130.70;;
3949;SDS011;53057;50.988;6.314;2024-02-28T05:18:29;562.17;;;117.50;;
3949;SDS011;53057;50.988;6.314;2024-02-28T05:20:57;541.73;;;119.30;;
3949;SDS011;53057;50.988;6.314;2024-02-28T05:23:26;544.60;;;138.27;;
3949;SDS011;53057;50.988;6.314;2024-02-28T05:25:53;560.60;;;124.83;;
3949;SDS011;53057;50.988;6.314;2024-02-28T05:28:20;597.70;;;130.67;;
3949;SDS011;53057;50.988;6.314;2024-02-28T05:30:48;590.83;;;123.37;;
3949;SDS011;53057;50.988;6.314;2024-02-28T05:33:17;601.70;;;127.50;;
3949;SDS011;53057;50.988;6.314;2024-02-28T05:35:44;587.27;;;127.70;;
3949;SDS011;53057;50.988;6.314;2024-02-28T05:38:11;566.80;;;126.27;;
3949;SDS011;53057;50.988;6.314;2024-02-28T05:40:38;547.57;;;113.73;;
3949;SDS011;53057;50.988;6.314;2024-02-28T05:43:05;647.93;;;161.73;;
3949;SDS011;53057;50.988;6.314;2024-02-28T05:45:31;538.17;;;139.50;;
3949;SDS011;53057;50.988;6.314;2024-02-28T05:47:58;560.23;;;144.73;;
3949;SDS011;53057;50.988;6.314;2024-02-28T05:50:25;540.00;;;132.07;;
3949;SDS011;53057;50.988;6.314;2024-02-28T05:52:53;578.47;;;139.83;;
3949;SDS011;53057;50.988;6.314;2024-02-28T05:55:20;578.73;;;136.03;;
3949;SDS011;53057;50.988;6.314;2024-02-28T05:57:49;533.60;;;121.30;;
3949;SDS011;53057;50.988;6.314;2024-02-28T06:00:16;546.10;;;124.00;;
3949;SDS011;53057;50.988;6.314;2024-02-28T06:02:43;551.33;;;113.30;;
3949;SDS011;53057;50.988;6.314;2024-02-28T06:05:10;517.83;;;118.97;;
3949;SDS011;53057;50.988;6.314;2024-02-28T06:07:37;551.13;;;129.33;;
3949;SDS011;53057;50.988;6.314;2024-02-28T06:10:04;532.33;;;119.57;;
3949;SDS011;53057;50.988;6.314;2024-02-28T06:12:30;553.77;;;195.60;;
3949;SDS011;53057;50.988;6.314;2024-02-28T06:14:57;559.27;;;170.30;;
3949;SDS011;53057;50.988;6.314;2024-02-28T06:17:25;512.03;;;122.70;;
3949;SDS011;53057;50.988;6.314;2024-02-28T06:19:52;513.97;;;141.37;;
3949;SDS011;53057;50.988;6.314;2024-02-28T06:22:20;509.17;;;139.37;;
3949;SDS011;53057;50.988;6.314;2024-02-28T06:24:47;492.53;;;129.70;;
3949;SDS011;53057;50.988;6.314;2024-02-28T06:27:15;480.07;;;144.40;;
3949;SDS011;53057;50.988;6.314;2024-02-28T06:29:42;471.90;;;129.17;;
3949;SDS011;53057;50.988;6.314;2024-02-28T06:32:09;483.83;;;135.30;;
3949;SDS011;53057;50.988;6.314;2024-02-28T06:34:36;501.50;;;146.20;;
3949;SDS011;53057;50.988;6.314;2024-02-28T06:37:03;471.30;;;142.73;;
3949;SDS011;53057;50.988;6.314;2024-02-28T06:39:31;440.00;;;109.20;;
3949;SDS011;53057;50.988;6.314;2024-02-28T06:41:59;469.43;;;129.60;;
3949;SDS011;53057;50.988;6.314;2024-02-28T06:44:26;436.87;;;123.53;;
3949;SDS011;53057;50.988;6.314;2024-02-28T06:46:53;464.10;;;123.40;;
3949;SDS011;53057;50.988;6.314;2024-02-28T06:49:21;452.23;;;112.37;;
3949;SDS011;53057;50.988;6.314;2024-02-28T06:51:50;447.23;;;108.20;;
3949;SDS011;53057;50.988;6.314;2024-02-28T06:54:18;435.37;;;108.10;;
3949;SDS011;53057;50.988;6.314;2024-02-28T06:56:45;447.30;;;107.80;;
3949;SDS011;53057;50.988;6.314;2024-02-28T06:59:12;456.53;;;113.10;;
3949;SDS011;53057;50.988;6.314;2024-02-28T07:01:39;451.13;;;119.87;;
3949;SDS011;53057;50.988;6.314;2024-02-28T07:04:06;508.57;;;137.97;;
3949;SDS011;53057;50.988;6.314;2024-02-28T07:06:34;476.60;;;141.20;;
3949;SDS011;53057;50.988;6.314;2024-02-28T07:09:02;534.57;;;188.67;;
3949;SDS011;53057;50.988;6.314;2024-02-28T07:11:30;422.27;;;90.40;;
3949;SDS011;53057;50.988;6.314;2024-02-28T07:13:57;418.97;;;83.80;;
3949;SDS011;53057;50.988;6.314;2024-02-28T07:16:29;458.30;;;113.50;;
3949;SDS011;53057;50.988;6.314;2024-02-28T07:18:57;446.63;;;100.23;;
3949;SDS011;53057;50.988;6.314;2024-02-28T07:21:23;444.73;;;95.30;;
3949;SDS011;53057;50.988;6.314;2024-02-28T07:23:50;436.13;;;92.37;;
3949;SDS011;53057;50.988;6.314;2024-02-28T07:26:17;448.50;;;93.27;;
3949;SDS011;53057;50.988;6.314;2024-02-28T07:28:53;432.03;;;79.37;;
3949;SDS011;53057;50.988;6.314;2024-02-28T07:31:20;388.43;;;80.27;;
3949;SDS011;53057;50.988;6.314;2024-02-28T07:33:47;371.80;;;86.87;;
3949;SDS011;53057;50.988;6.314;2024-02-28T07:36:16;272.73;;;59.93;;
3949;SDS011;53057;50.988;6.314;2024-02-28T07:38:43;301.73;;;60.50;;
3949;SDS011;53057;50.988;6.314;2024-02-28T07:41:09;382.77;;;77.87;;
3949;SDS011;53057;50.988;6.314;2024-02-28T07:43:41;310.43;;;61.47;;
3949;SDS011;53057;50.988;6.314;2024-02-28T07:46:09;329.13;;;69.87;;
3949;SDS011;53057;50.988;6.314;2024-02-28T07:48:38;319.20;;;65.00;;
3949;SDS011;53057;50.988;6.314;2024-02-28T07:51:06;230.70;;;53.10;;
3949;SDS011;53057;50.988;6.314;2024-02-28T07:53:34;278.83;;;60.23;;
3949;SDS011;53057;50.988;6.314;2024-02-28T07:56:02;199.47;;;49.07;;
3949;SDS011;53057;50.988;6.314;2024-02-28T07:58:30;195.77;;;44.87;;
3949;SDS011;53057;50.988;6.314;2024-02-28T08:00:57;277.60;;;63.10;;
3949;SDS011;53057;50.988;6.314;2024-02-28T08:03:25;239.40;;;56.80;;
3949;SDS011;53057;50.988;6.314;2024-02-28T08:05:52;265.97;;;61.43;;
3949;SDS011;53057;50.988;6.314;2024-02-28T08:08:19;233.47;;;53.33;;
3949;SDS011;53057;50.988;6.314;2024-02-28T08:10:47;246.20;;;62.63;;
3949;SDS011;53057;50.988;6.314;2024-02-28T08:13:16;259.03;;;59.40;;
3949;SDS011;53057;50.988;6.314;2024-02-28T08:15:43;256.63;;;62.53;;
3949;SDS011;53057;50.988;6.314;2024-02-28T08:18:11;213.97;;;52.53;;
3949;SDS011;53057;50.988;6.314;2024-02-28T08:20:39;251.13;;;61.13;;
3949;SDS011;53057;50.988;6.314;2024-02-28T08:23:06;238.70;;;61.93;;
3949;SDS011;53057;50.988;6.314;2024-02-28T08:25:33;260.60;;;66.80;;
3949;SDS011;53057;50.988;6.314;2024-02-28T08:28:00;223.30;;;60.20;;
3949;SDS011;53057;50.988;6.314;2024-02-28T08:30:27;238.97;;;66.57;;
3949;SDS011;53057;50.988;6.314;2024-02-28T08:32:54;214.23;;;64.80;;
3949;SDS011;53057;50.988;6.314;2024-02-28T08:35:21;193.77;;;60.70;;
3949;SDS011;53057;50.988;6.314;2024-02-28T08:37:50;176.83;;;55.00;;
3949;SDS011;53057;50.988;6.314;2024-02-28T08:40:17;170.07;;;57.23;;
3949;SDS011;53057;50.988;6.314;2024-02-28T08:42:44;126.00;;;50.87;;
3949;SDS011;53057;50.988;6.314;2024-02-28T08:45:13;127.30;;;48.90;;
3949;SDS011;53057;50.988;6.314;2024-02-28T08:47:40;138.40;;;56.10;;
3949;SDS011;53057;50.988;6.314;2024-02-28T08:50:08;131.23;;;59.57;;
3949;SDS011;53057;50.988;6.314;2024-02-28T08:52:35;166.60;;;83.27;;
3949;SDS011;53057;50.988;6.314;2024-02-28T08:55:03;149.50;;;72.73;;
3949;SDS011;53057;50.988;6.314;2024-02-28T08:57:31;114.17;;;50.80;;
3949;SDS011;53057;50.988;6.314;2024-02-28T08:59:58;116.60;;;49.80;;
3949;SDS011;53057;50.988;6.314;2024-02-28T09:02:25;126.30;;;59.03;;
3949;SDS011;53057;50.988;6.314;2024-02-28T09:04:52;110.50;;;50.30;;
3949;SDS011;53057;50.988;6.314;2024-02-28T09:07:23;105.03;;;48.80;;
3949;SDS011;53057;50.988;6.314;2024-02-28T09:09:51;136.83;;;63.17;;
3949;SDS011;53057;50.988;6.314;2024-02-28T09:12:18;115.00;;;46.27;;
3949;SDS011;53057;50.988;6.314;2024-02-28T09:14:45;79.07;;;37.80;;
3949;SDS011;53057;50.988;6.314;2024-02-28T09:17:13;81.20;;;36.43;;
3949;SDS011;53057;50.988;6.314;2024-02-28T09:19:40;81.23;;;36.30;;
3949;SDS011;53057;50.988;6.314;2024-02-28T09:22:07;82.37;;;36.37;;
3949;SDS011;53057;50.988;6.314;2024-02-28T09:24:34;67.17;;;28.87;;
3949;SDS011;53057;50.988;6.314;2024-02-28T09:27:05;67.93;;;30.03;;
3949;SDS011;53057;50.988;6.314;2024-02-28T09:29:32;79.90;;;35.53;;
3949;SDS011;53057;50.988;6.314;2024-02-28T09:32:00;73.43;;;37.97;;
3949;SDS011;53057;50.988;6.314;2024-02-28T09:34:27;77.80;;;39.27;;
3949;SDS011;53057;50.988;6.314;2024-02-28T09:36:58;82.83;;;39.67;;
3949;SDS011;53057;50.988;6.314;2024-02-28T09:39:26;71.13;;;34.60;;
3949;SDS011;53057;50.988;6.314;2024-02-28T09:41:53;74.17;;;39.10;;
3949;SDS011;53057;50.988;6.314;2024-02-28T09:44:21;82.33;;;38.90;;
3949;SDS011;53057;50.988;6.314;2024-02-28T09:46:52;65.57;;;31.93;;
3949;SDS011;53057;50.988;6.314;2024-02-28T09:49:20;80.50;;;36.93;;
3949;SDS011;53057;50.988;6.314;2024-02-28T09:51:49;65.50;;;35.30;;
3949;SDS011;53057;50.988;6.314;2024-02-28T09:54:18;69.60;;;34.70;;
3949;SDS011;53057;50.988;6.314;2024-02-28T09:56:47;73.50;;;35.53;;
3949;SDS011;53057;50.988;6.314;2024-02-28T09:59:15;65.43;;;27.53;;
3949;SDS011;53057;50.988;6.314;2024-02-28T10:01:42;70.07;;;32.43;;
3949;SDS011;53057;50.988;6.314;2024-02-28T10:04:12;63.60;;;30.40;;
3949;SDS011;53057;50.988;6.314;2024-02-28T10:06:40;66.07;;;30.27;;
3949;SDS011;53057;50.988;6.314;2024-02-28T10:09:08;64.00;;;31.90;;
3949;SDS011;53057;50.988;6.314;2024-02-28T10:11:37;57.30;;;26.40;;
3949;SDS011;53057;50.988;6.314;2024-02-28T10:14:04;67.43;;;31.80;;
3949;SDS011;53057;50.988;6.314;2024-02-28T10:16:31;60.40;;;31.53;;
3949;SDS011;53057;50.988;6.314;2024-02-28T10:18:58;98.10;;;49.83;;
3949;SDS011;53057;50.988;6.314;2024-02-28T10:21:25;92.70;;;48.40;;
3949;SDS011;53057;50.988;6.314;2024-02-28T10:23:53;48.27;;;22.43;;
3949;SDS011;53057;50.988;6.314;2024-02-28T10:26:20;81.17;;;43.80;;
3949;SDS011;53057;50.988;6.314;2024-02-28T10:28:47;66.03;;;35.60;;
3949;SDS011;53057;50.988;6.314;2024-02-28T10:31:14;50.67;;;27.07;;
3949;SDS011;53057;50.988;6.314;2024-02-28T10:33:42;57.70;;;29.47;;
3949;SDS011;53057;50.988;6.314;2024-02-28T10:36:10;55.43;;;28.13;;
3949;SDS011;53057;50.988;6.314;2024-02-28T10:38:39;55.30;;;24.17;;
3949;SDS011;53057;50.988;6.314;2024-02-28T10:41:06;47.27;;;24.63;;
3949;SDS011;53057;50.988;6.314;2024-02-28T10:43:37;58.57;;;25.53;;
3949;SDS011;53057;50.988;6.314;2024-02-28T10:46:06;53.47;;;28.30;;
3949;SDS011;53057;50.988;6.314;2024-02-28T10:48:53;45.83;;;21.93;;
3949;SDS011;53057;50.988;6.314;2024-02-28T10:51:22;67.10;;;34.50;;
3949;SDS011;53057;50.988;6.314;2024-02-28T10:53:59;44.43;;;21.30;;
3949;SDS011;53057;50.988;6.314;2024-02-28T10:56:30;51.30;;;24.37;;
3949;SDS011;53057;50.988;6.314;2024-02-28T10:58:58;55.27;;;24.80;;
3949;SDS011;53057;50.988;6.314;2024-02-28T11:01:26;56.33;;;27.10;;
3949;SDS011;53057;50.988;6.314;2024-02-28T11:03:53;56.97;;;28.10;;
3949;SDS011;53057;50.988;6.314;2024-02-28T11:06:21;48.73;;;23.80;;
3949;SDS011;53057;50.988;6.314;2024-02-28T11:08:49;48.73;;;23.17;;
3949;SDS011;53057;50.988;6.314;2024-02-28T11:11:20;45.43;;;22.10;;
3949;SDS011;53057;50.988;6.314;2024-02-28T11:16:31;56.30;;;25.97;;
3949;SDS011;53057;50.988;6.314;2024-02-28T11:18:59;43.37;;;23.70;;
3949;SDS011;53057;50.988;6.314;2024-02-28T11:21:27;51.23;;;26.97;;
3949;SDS011;53057;50.988;6.314;2024-02-28T11:23:58;53.27;;;28.97;;
3949;SDS011;53057;50.988;6.314;2024-02-28T11:26:26;45.60;;;22.13;;
3949;SDS011;53057;50.988;6.314;2024-02-28T11:28:54;53.37;;;20.47;;
3949;SDS011;53057;50.988;6.314;2024-02-28T11:31:22;63.17;;;26.37;;
3949;SDS011;53057;50.988;6.314;2024-02-28T11:33:50;55.10;;;25.77;;
3949;SDS011;53057;50.988;6.314;2024-02-28T11:36:17;45.10;;;23.70;;
3949;SDS011;53057;50.988;6.314;2024-02-28T11:38:45;51.23;;;26.53;;
3949;SDS011;53057;50.988;6.314;2024-02-28T11:41:13;48.90;;;22.30;;
3949;SDS011;53057;50.988;6.314;2024-02-28T11:43:45;42.10;;;21.70;;
3949;SDS011;53057;50.988;6.314;2024-02-28T11:46:18;40.47;;;24.60;;
3949;SDS011;53057;50.988;6.314;2024-02-28T11:48:45;49.43;;;26.27;;
3949;SDS011;53057;50.988;6.314;2024-02-28T11:51:16;46.90;;;24.37;;
3949;SDS011;53057;50.988;6.314;2024-02-28T11:53:43;41.27;;;23.17;;
3949;SDS011;53057;50.988;6.314;2024-02-28T11:56:10;52.23;;;24.93;;
3949;SDS011;53057;50.988;6.314;2024-02-28T11:58:37;38.97;;;20.73;;
3949;SDS011;53057;50.988;6.314;2024-02-28T12:01:03;38.73;;;20.77;;
3949;SDS011;53057;50.988;6.314;2024-02-28T12:03:31;39.00;;;22.00;;
3949;SDS011;53057;50.988;6.314;2024-02-28T12:05:58;38.33;;;21.83;;
3949;SDS011;53057;50.988;6.314;2024-02-28T12:08:27;55.97;;;31.07;;
3949;SDS011;53057;50.988;6.314;2024-02-28T12:11:05;36.23;;;19.37;;
3949;SDS011;53057;50.988;6.314;2024-02-28T12:13:32;41.80;;;20.27;;
3949;SDS011;53057;50.988;6.314;2024-02-28T12:16:00;39.77;;;21.80;;
3949;SDS011;53057;50.988;6.314;2024-02-28T12:18:27;40.83;;;23.33;;
3949;SDS011;53057;50.988;6.314;2024-02-28T12:20:55;50.43;;;28.07;;
3949;SDS011;53057;50.988;6.314;2024-02-28T12:23:22;48.03;;;24.40;;
3949;SDS011;53057;50.988;6.314;2024-02-28T12:25:49;54.00;;;25.77;;
3949;SDS011;53057;50.988;6.314;2024-02-28T12:28:17;31.90;;;18.47;;
3949;SDS011;53057;50.988;6.314;2024-02-28T12:30:44;51.40;;;27.77;;
3949;SDS011;53057;50.988;6.314;2024-02-28T12:33:11;34.17;;;19.87;;
3949;SDS011;53057;50.988;6.314;2024-02-28T12:35:38;38.57;;;21.87;;
3949;SDS011;53057;50.988;6.314;2024-02-28T12:38:05;37.90;;;19.80;;
3949;SDS011;53057;50.988;6.314;2024-02-28T12:40:32;37.60;;;20.57;;
3949;SDS011;53057;50.988;6.314;2024-02-28T12:42:59;35.93;;;20.10;;
3949;SDS011;53057;50.988;6.314;2024-02-28T12:45:26;36.57;;;18.50;;
3949;SDS011;53057;50.988;6.314;2024-02-28T12:47:54;33.23;;;20.00;;
3949;SDS011;53057;50.988;6.314;2024-02-28T12:50:24;34.93;;;18.90;;
3949;SDS011;53057;50.988;6.314;2024-02-28T12:52:51;27.67;;;13.20;;
3949;SDS011;53057;50.988;6.314;2024-02-28T12:55:20;24.87;;;13.60;;
3949;SDS011;53057;50.988;6.314;2024-02-28T12:57:51;35.57;;;17.43;;
3949;SDS011;53057;50.988;6.314;2024-02-28T13:00:18;31.07;;;14.00;;
3949;SDS011;53057;50.988;6.314;2024-02-28T13:02:45;23.83;;;13.50;;
3949;SDS011;53057;50.988;6.314;2024-02-28T13:05:13;28.70;;;13.87;;
3949;SDS011;53057;50.988;6.314;2024-02-28T13:07:40;26.00;;;14.33;;
3949;SDS011;53057;50.988;6.314;2024-02-28T13:10:07;31.90;;;14.97;;
3949;SDS011;53057;50.988;6.314;2024-02-28T13:12:37;29.27;;;15.50;;
3949;SDS011;53057;50.988;6.314;2024-02-28T13:15:06;31.00;;;17.47;;
3949;SDS011;53057;50.988;6.314;2024-02-28T13:17:33;25.10;;;14.40;;
3949;SDS011;53057;50.988;6.314;2024-02-28T13:19:59;22.50;;;13.70;;
3949;SDS011;53057;50.988;6.314;2024-02-28T13:25:22;25.83;;;13.47;;
3949;SDS011;53057;50.988;6.314;2024-02-28T13:27:49;21.33;;;12.87;;
3949;SDS011;53057;50.988;6.314;2024-02-28T13:30:16;25.80;;;15.77;;
3949;SDS011;53057;50.988;6.314;2024-02-28T13:32:43;25.60;;;15.30;;
3949;SDS011;53057;50.988;6.314;2024-02-28T13:35:12;28.83;;;15.00;;
3949;SDS011;53057;50.988;6.314;2024-02-28T13:37:39;28.03;;;13.33;;
3949;SDS011;53057;50.988;6.314;2024-02-28T13:40:07;32.87;;;15.33;;
3949;SDS011;53057;50.988;6.314;2024-02-28T13:42:36;28.17;;;14.97;;
3949;SDS011;53057;50.988;6.314;2024-02-28T13:45:04;26.67;;;14.90;;
3949;SDS011;53057;50.988;6.314;2024-02-28T13:47:34;25.50;;;14.93;;
3949;SDS011;53057;50.988;6.314;2024-02-28T13:50:01;20.30;;;12.37;;
3949;SDS011;53057;50.988;6.314;2024-02-28T13:52:28;22.30;;;13.33;;
3949;SDS011;53057;50.988;6.314;2024-02-28T13:54:56;21.83;;;11.87;;
3949;SDS011;53057;50.988;6.314;2024-02-28T13:57:23;21.13;;;12.90;;
3949;SDS011;53057;50.988;6.314;2024-02-28T13:59:50;52.47;;;20.93;;
3949;SDS011;53057;50.988;6.314;2024-02-28T14:02:23;26.57;;;15.37;;
3949;SDS011;53057;50.988;6.314;2024-02-28T14:04:54;27.80;;;13.63;;
3949;SDS011;53057;50.988;6.314;2024-02-28T14:07:21;28.23;;;13.57;;
3949;SDS011;53057;50.988;6.314;2024-02-28T14:09:48;28.50;;;14.20;;
3949;SDS011;53057;50.988;6.314;2024-02-28T14:12:15;21.90;;;12.20;;
3949;SDS011;53057;50.988;6.314;2024-02-28T14:14:42;22.90;;;12.13;;
3949;SDS011;53057;50.988;6.314;2024-02-28T14:17:09;22.33;;;12.50;;
3949;SDS011;53057;50.988;6.314;2024-02-28T14:19:36;20.90;;;11.90;;
3949;SDS011;53057;50.988;6.314;2024-02-28T14:22:03;22.77;;;12.03;;
3949;SDS011;53057;50.988;6.314;2024-02-28T14:24:31;19.47;;;10.97;;
3949;SDS011;53057;50.988;6.314;2024-02-28T14:26:58;24.10;;;13.33;;